Academy, New Jersey
Current Conditions -  °F | °C
As of 10:51 PM on Thursday 18 Dec 2014 (Local Time) from KEWR Reporting Station
Broken Clouds Broken Clouds  
Wind Chill: 30°   Ceiling: 25000
Heat Index: 37°   Visibility: 10mi
Dew Point: 26°   Wind: 9mph
Humidity: 65%   Direction: 280°W
Pressure: 29.98"   Gusts: 16mph
Location:  40.7334°N, 74.1735°W
Report Text: KEWR 190351Z 28008G14KT 10SM FEW030 BKN250 03/M03 A2998 RMK AO2 SLP152 T00281033
Loading
Personal Weather Stations






























Interactive Weather Map New forecast layout! Learn more

10-Day Weather Forecast

Advertisements
Track Severe Weather on mobile